Friday, August 29, 2014
03:20 UTC
  |  Log In   |  Register Free
Airport Search:

Southwest Georgia Regional Airport
(KABY)

FAA data valid effective July 24, 2014 until September 18, 2014 (unless otherwise noted).

 
 
 
 
 
 
 
 
 
 
 
 
 
 

Current Aviation Weather for Southwest Georgia Regional Airport (KABY)

The most recent METAR observation for KABY was updated at: 0253 UTC
METAR Summary (Translated METAR)
KABY
290253Z 00000KT 10SM CLR 23/17 A3002 RMK AO2 SLP162 T02280172 53016
KMGR
(33.7 nm SE from KABY)
290055Z AUTO 00000KT 10SM CLR 26/17 A2999 RMK AO2
TAF Summary (Translated TAF)
KABY
281738Z 2818/2918 VRB05KT P6SM FEW070 FM290000 00000KT P6SM SCT250 FM291500 13005KT P6SM SCT050 SCT250
  Airport Weather Conditions for KABY

 Current Weather at ABY
73° F
Fair
North winds at 0.0 mph
ABY NOAA Radar

Pressure: 30.02 in
Humidity: 71%
Wind: Calm
Dew Point: 63.0°F
Visibility: 10.00 mi


Airport Weather Forecast for KABY

Translated METAR and TAF for KABY
Translated METAR for KABY (0313 UTC 29 August 2014)
found at http://aviationweather.gov/adds/metars/
 
METAR text: KABY 290253Z 00000KT 10SM CLR 23/17 A3002 RMK AO2 SLP162 T02280172 53016
Conditions at: KABY (ALBANY , GA, US) observed 0253 UTC 29 August 2014
Temperature: 22.8°C (73°F)
Dewpoint: 17.2°C (63°F) [RH = 71%]
Pressure (altimeter): 30.02 inches Hg (1016.7 mb)
[Sea-level pressure: 1016.2 mb]
Winds: calm
Visibility: 10 or more miles (16+ km)
Ceiling: at least 12,000 feet AGL
Clouds: sky clear below 12,000 feet AGL
Weather: no significant weather observed at this time
Translated TAF for KABY
Forecast for: KABY (ALBANY , GA, US)
TAF Text: KABY 282320Z 2900/2924 00000KT P6SM SKC
Forecast period: 0000 to 1500 UTC 29 August 2014
Forecast type: FROM: standard forecast or significant change
Winds: calm
Visibility: 6 or more miles (10+ km)
Clouds: clear skies
Weather: no significant weather forecast for this period
TAF Text: FM291500 15005KT P6SM SCT050 BKN250
Forecast period: 1500 to 1800 UTC 29 August 2014
Forecast type: FROM: standard forecast or significant change
Winds: from the SSE (150 degrees) at 6 MPH (5 knots; 2.6 m/s)
Visibility: 6 or more miles (10+ km)
Ceiling: 25000 feet AGL
Clouds: scattered clouds at 5000 feet AGL
broken clouds at 25000 feet AGL
Weather: no significant weather forecast for this period
TAF Text: FM291800 18006KT P6SM BKN050
Forecast period: 1800 UTC 29 August 2014 to 0000 UTC 30 August 2014
Forecast type: FROM: standard forecast or significant change
Winds: from the S (180 degrees) at 7 MPH (6 knots; 3.1 m/s)
Visibility: 6 or more miles (10+ km)
Ceiling: 5000 feet AGL
Clouds: broken clouds at 5000 feet AGL
Weather: no significant weather forecast for this period
TAF Text: PROB30 2918/2924 3SM TSRA SCT025CB BKN050
Forecast period: 1800 UTC 29 August 2014 to 0000 UTC 30 August 2014
Forecast type: PROBABLE: 30 percent likelihood of the following during this time
Visibility: 3 miles (5 km)
Ceiling: 5000 feet AGL
Clouds: scattered clouds at 2500 feet AGL
broken clouds at 5000 feet AGL
Weather: TSRA  (rain associated with thunderstorm(s))

Find All Airport Services Find A Hotel Find A Rental Car Find A Golf Course Find A Restaurant $100 Hamburger



FBO's on the Field
FBO Company Facility Photos Services Transportation Aviation Fuel Prices: Prices include tax
Catering Weather Repair Courtesy Rental Type 100LL JetA JetA+ MOGAS 8087
 
Eagles of America, Inc. - ABY

This FBO has not yet been rated
FS:AirBP
Last Updated: Jul-23
Login to update fuel prices
SS:
Contact Eagles of America, Inc. - ABYMore FBO Information
 
Add another FBO Facility Photos Catering Weather Repair Courtesy Rental Type 100LL JetA JetA+ MOGAS 8087
Services Transportation Aviation Fuel Prices: Prices include tax


GlobalAir.com Airport Resource Center model-print
model-print
model-print
model-print